默认 日期 大小 文件数 浏览量 最新下载 xml
alan-磁力链接相关资源由用户搜索指令自动获取,结果来源于网络,本站不存储任何资料,亦不承担任何责任,请于24小时内删除,搜索到7981个磁力,显示前4000条数据,用时4ms。
    ... 951875, "This Time with Alan Partridge S01E01.mp4": 1161947212, ... 898914, "This Time with Alan Partridge S01E02.mp4": 1177962333, ... 1005793, "This Time with Alan Partridge S01E04.mp4": 1178135493, ... 1051895, "This Time with Alan Partridge S01E05.mp4": 1171377790, ...
创建时间: 2019-04-30 01:48:35 大小:6.53 GB 文件数量:43 热度:5 最近下载:2024-12-01 02:58:01
    {"04 - The Clicker.mp3": 4473500, "10 - Tom The Diver.mp3": 6787979, "02 - Young Men Dead.mp3": 13392763, "01 - A Writer's Dream.mp3": 4569641, "05 - How Can I Be Sure.mp3": 10949790, "09 - Electrica Cadente.mp3": 7239353, "08 - The Poet and The Muse.mp3": ...
创建时间: 2019-04-30 04:05:39 大小:83.61 MB 文件数量:10 热度:5 最近下载:2025-03-29 01:23:03
    {"Cover.jpg": 2944299, "02 Arrival.flac": 7088662, "28 Portals.flac": 20474769, "30 The One.flac": 13720834, "03 No Trust.flac": 12712262, "12 One Shot.flac": 11451222, "22 Not Good.flac": 9674062, "27 Worth It.flac": 23414090, "34 Go Ahead.flac": 12178525 ...
创建时间: 2019-04-30 04:21:20 大小:526.94 MB 文件数量:37 热度:3 最近下载:2021-06-17 16:25:58
    {"Stephen White - Line Of Fire.mp3": 184702807, "cover - Stephen White - Line Of Fire.jpg": 21651}
创建时间: 2019-04-30 05:30:50 大小:176.17 MB 文件数量:2 热度:3 最近下载:2021-06-17 16:25:58
    {"04 Call Up.mp3": 12572383, "02 Temporalia.mp3": 2311485, "09 Press Rewind.mp3": 10444971, "03 Out Of The Blue.mp3": 11928726, "06 Rubber Universe.mp3": 9292448, "05 Ignorance Is Bliss.mp3": 16241020, "10 The Very Last Time.mp3": 8834783, "07 The Call Of ...
创建时间: 2019-04-30 05:47:28 大小:118.94 MB 文件数量:12 热度:6 最近下载:2025-09-19 10:37:02
    {"Cover.jpg": 2944299, "02 Arrival.flac": 7088662, "28 Portals.flac": 20474769, "30 The One.flac": 13720834, "03 No Trust.flac": 12712262, "12 One Shot.flac": 11451222, "22 Not Good.flac": 9674062, "27 Worth It.flac": 23414090, "34 Go Ahead.flac": 12178525 ...
创建时间: 2019-04-30 05:54:12 大小:526.93 MB 文件数量:36 热度:4 最近下载:2021-06-17 16:25:58
    {"Cover.jpg": 2944299, "02 Arrival.flac": 7088662, "28 Portals.flac": 20474769, "30 The One.flac": 13720834, "03 No Trust.flac": 12712262, "12 One Shot.flac": 11451222, "22 Not Good.flac": 9674062, "27 Worth It.flac": 23414090, "34 Go Ahead.flac": 12178525 ...
创建时间: 2019-04-30 08:08:38 大小:526.93 MB 文件数量:36 热度:4 最近下载:2021-06-17 16:25:58
    {"08 Pipeline.flac": 25801546, "01 Prime time.flac": 32623528, "02 Let me go home.flac": 22717141, "09 Ammonia avenue.flac": 38638623, "03 One good reason.flac": 24188618, "05 Don't answer me.flac": 30480958, "07 You don't believe.flac": 30990575, "06 ...
创建时间: 2019-04-30 10:01:45 大小:252.36 MB 文件数量:9 热度:4 最近下载:2021-06-17 16:25:58
    {"08. Requiem.mp3": 9838581, "07. Fly to Me.mp3": 9164626, "03. As Lights Fall.mp3": 9674546, "09. Years of Glory.mp3": 9955624, "04. One Note Symphony.mp3": 11463417, "06. Soiree Fantastique.mp3": 13255419, "10. The Limelight Fades Away.mp3": 8810435, "02 ...
创建时间: 2019-04-30 14:06:44 大小:112.63 MB 文件数量:11 热度:4 最近下载:2021-06-17 16:25:58
    ... There from Here.flac": 29865332, "Alan Parsons - The Secret - 2019.jpg ...
创建时间: 2019-04-30 19:56:43 大小:287.3 MB 文件数量:12 热度:2 最近下载:2021-06-17 16:25:58
    {"VIDEO_TS": {"VIDEO_TS.BUP": 8192, "VIDEO_TS.IFO": 8192, "VTS_01_0.BUP": 73728, "VTS_01_0.IFO": 73728, "VTS_01_0.VOB": 12142592, "VTS_01_1.VOB": 1073739776, "VTS_01_2.VOB": 1073739776, "VTS_01_3.VOB": 1073739776, "VTS_01_4.VOB": 746330112}, " ...
创建时间: 2019-04-30 20:30:12 大小:3.71 GB 文件数量:21 热度:8 最近下载:2025-03-23 12:50:03
    ... Note Symphony.flac": 28669673, "06. Alan Parsons - Soiree Fantastique.flac": 35562798 ... , "10. Alan Parsons - The Limelight Fades Away ... Jason Mraz).flac": 23489801, "05. Alan Parsons - Sometimes (feat. Lou Gramm ...
创建时间: 2019-04-30 23:28:53 大小:293.77 MB 文件数量:12 热度:3 最近下载:2021-06-17 16:25:58
    {"V3nom.gif": 151778, "02 Prologue.m4a": 5320084, "19 Big Idea.m4a": 5925781, "20 Epilogue.m4a": 9952610, "12 Story Time.m4a": 8679446, "13 Family Maze.m4a": 7312814, "14 Star Canopy.m4a": 5004617, "08 Piranhakeets.m4a": 5488931, "09 Fire and Corn.m4a": ...
创建时间: 2019-05-01 00:12:54 大小:152.35 MB 文件数量:33 热度:6 最近下载:2023-02-27 18:40:07
    {"cover.jpg": 36587, "02 Miracle.mp3": 8236285, "08 Requiem.mp3": 9836024, "05 Sometimes.mp3": 12489024, "07 Fly to Me.mp3": 9162069, "03 As Lights Fall.mp3": 9671989, "09 Years of Glory.mp3": 9953067, "04 One Note Symphony.mp3": 11460860, "06 Soiree ...
创建时间: 2019-05-01 00:29:40 大小:112.64 MB 文件数量:12 热度:4 最近下载:2023-02-27 18:40:17
    ... }, "Ramshackled.jpg": 61838, "Alan White - Ramshacked.cue": 1205, "Alan White - Ramshacked.flac ... ": 263749905, "Alan White - Ramshacked ISRC ...
创建时间: 2019-05-01 00:39:38 大小:1.98 GB 文件数量:125 热度:13 最近下载:2025-03-28 13:34:03
    ... , "Folder.jpg": 163071, "Alan Parsons Project,The-Pyramid[1978 ... ]": {"01 Alan Parsons Project, The - Voyager ... .mp3": 4329440, "07 Alan Parsons Project, The - Pyramania.mp3 ... ": 5679093, "04 Alan Parsons Project, The - One ...
创建时间: 2019-05-01 00:43:45 大小:70.41 MB 文件数量:11 热度:5 最近下载:2023-02-27 18:40:04
    {"Front.jpg": 36587, "02 - Miracle.mp3": 8236285, "08 - Requiem.mp3": 9836024, "05 - Sometimes.mp3": 12489024, "07 - Fly to Me.mp3": 9162069, "03 - As Lights Fall.mp3": 9671989, "09 - Years of Glory.mp3": 9953067, "04 - One Note Symphony.mp3": 11460860, " ...
创建时间: 2019-05-01 01:53:18 大小:112.64 MB 文件数量:14 热度:5 最近下载:2023-02-27 19:00:27
    ... Checker.log": 1263, "02. Alan Parsons - Miracle.flac": 22966831, ... Symphony.flac": 28146711, "06. Alan Parsons - Soiree Fantastique.flac": ... 35039836, "10. Alan Parsons - The Limelight Fades ... .flac": 23053735, "01. Alan Parsons - The Sorcerer's ...
创建时间: 2019-05-01 05:48:32 大小:288 MB 文件数量:16 热度:5 最近下载:2023-02-27 19:10:04
    {"Alan Parsons Project - Turn Of A ... ": 757705, "Booklet-6.jpg": 555137}}, "Alan Parsons Project - Turn Of A ...
创建时间: 2019-05-01 07:38:19 大小:2.47 GB 文件数量:39 热度:4 最近下载:2025-03-04 06:24:03
    {"ps-tsecp.mp4": 907327663}
创建时间: 2019-05-01 08:29:46 大小:865.3 MB 文件数量:1 热度:12 最近下载:2024-12-12 11:30:02